Time;durP1;ratioP1;P1;durP2;ratioP2;P2;SDS_P1;SDS_P2;PMS_P1;PMS_P2;Temp;Humidity;BMP_temperature;BMP_pressure;BME280_temperature;BME280_humidity;BME280_pressure;Samples;Min_cycle;Max_cycle;Signal;HPM_P1;HPM_P2
2021/11/27 00:00:19;;;;;;;1.55;0.00;;;4.40;99.90;;;;;;4995259;28;20030;-78
2021/11/27 00:02:46;;;;;;;2.33;0.00;;;4.40;99.90;;;;;;4994735;28;20022;-78
2021/11/27 00:05:12;;;;;;;1.92;0.00;;;4.40;99.90;;;;;;4977133;28;20113;-77
2021/11/27 00:07:38;;;;;;;1.00;0.00;;;4.30;99.90;;;;;;4994651;28;20065;-78
2021/11/27 00:10:07;;;;;;;2.05;0.00;;;4.30;99.90;;;;;;4977701;28;20045;-78
2021/11/27 00:12:33;;;;;;;0.73;0.00;;;4.30;99.90;;;;;;4977103;28;20018;-78
2021/11/27 00:14:59;;;;;;;2.03;0.30;;;4.30;99.90;;;;;;4977166;28;20077;-78
2021/11/27 00:17:24;;;;;;;2.38;0.20;;;4.20;99.90;;;;;;4977144;28;20122;-78
2021/11/27 00:19:50;;;;;;;0.15;0.00;;;4.10;99.90;;;;;;4993213;28;20059;-77
2021/11/27 00:22:16;;;;;;;1.38;0.00;;;5.20;99.90;;;;;;4977154;28;20407;-78
2021/11/27 00:24:42;;;;;;;1.00;0.00;;;4.00;99.90;;;;;;4994623;28;20034;-78
2021/11/27 00:27:07;;;;;;;2.75;0.00;;;4.00;99.90;;;;;;4976952;28;20031;-79
2021/11/27 00:29:33;;;;;;;2.10;0.00;;;4.00;99.90;;;;;;4977076;28;20383;-77
2021/11/27 00:31:59;;;;;;;0.95;0.00;;;3.90;99.90;;;;;;4976988;28;20026;-77
2021/11/27 00:34:24;;;;;;;1.17;0.00;;;3.90;99.90;;;;;;4977086;28;20108;-79
2021/11/27 00:36:52;;;;;;;0.98;0.00;;;3.90;99.90;;;;;;4994174;28;20023;-78
2021/11/27 00:39:18;;;;;;;0.28;0.00;;;3.90;99.90;;;;;;4977033;28;20495;-78
2021/11/27 00:41:44;;;;;;;1.45;0.00;;;3.90;99.90;;;;;;4976467;28;20040;-78
2021/11/27 00:44:10;;;;;;;2.42;0.00;;;4.00;99.90;;;;;;4994350;28;20364;-77
2021/11/27 00:46:35;;;;;;;1.85;0.10;;;3.90;99.90;;;;;;4976575;28;20479;-78
2021/11/27 00:49:01;;;;;;;0.35;0.15;;;3.90;99.90;;;;;;4994381;28;20025;-78
2021/11/27 00:51:27;;;;;;;0.08;0.00;;;3.80;99.90;;;;;;4976491;28;20110;-77
2021/11/27 00:53:53;;;;;;;3.00;0.00;;;3.80;99.90;;;;;;4976430;28;20022;-78
2021/11/27 00:56:20;;;;;;;1.10;0.00;;;3.90;99.90;;;;;;4993944;28;20034;-79
2021/11/27 00:58:47;;;;;;;0.13;0.00;;;3.90;99.90;;;;;;4976510;28;20380;-79
2021/11/27 01:01:17;;;;;;;5.97;0.32;;;3.90;99.90;;;;;;4994201;28;20505;-79
2021/11/27 01:03:44;;;;;;;0.20;0.10;;;3.90;99.90;;;;;;4976796;28;20053;-77
2021/11/27 01:06:11;;;;;;;4.38;0.00;;;3.90;99.90;;;;;;4993907;28;20031;-77
2021/11/27 01:08:37;;;;;;;0.32;0.32;;;3.90;99.90;;;;;;4994201;28;20050;-78
2021/11/27 01:11:14;;;;;;;2.72;0.00;;;3.90;99.90;;;;;;4976738;28;20537;-78
2021/11/27 01:13:44;;;;;;;1.63;0.00;;;3.90;99.90;;;;;;4976400;28;20027;-77
2021/11/27 01:16:10;;;;;;;1.90;0.10;;;3.90;99.90;;;;;;4992648;28;20029;-77
2021/11/27 01:18:37;;;;;;;3.63;0.00;;;3.90;99.90;;;;;;4976500;28;20018;-77
2021/11/27 01:21:07;;;;;;;0.22;0.00;;;3.90;99.90;;;;;;4993608;28;20022;-77
2021/11/27 01:23:33;;;;;;;2.08;0.00;;;3.90;99.90;;;;;;4994052;28;20114;-78
2021/11/27 01:25:59;;;;;;;1.40;0.00;;;3.90;99.90;;;;;;4993589;28;20034;-77
2021/11/27 01:28:26;;;;;;;1.05;0.00;;;3.90;99.90;;;;;;4993987;28;20476;-78
2021/11/27 01:30:56;;;;;;;0.35;0.00;;;3.90;99.90;;;;;;4992650;28;20094;-77
2021/11/27 01:33:22;;;;;;;1.27;0.00;;;3.90;99.90;;;;;;4995980;28;20026;-78
2021/11/27 01:35:49;;;;;;;0.30;0.00;;;3.90;99.90;;;;;;4997251;28;20029;-77
2021/11/27 01:38:15;;;;;;;0.90;0.00;;;3.80;99.90;;;;;;4995681;28;20026;-78
2021/11/27 01:40:41;;;;;;;1.65;0.28;;;4.00;99.90;;;;;;4996925;28;20086;-77
2021/11/27 01:43:08;;;;;;;0.90;0.00;;;3.80;99.90;;;;;;4997174;28;20062;-78
2021/11/27 01:45:34;;;;;;;0.30;0.00;;;3.80;99.90;;;;;;4995996;28;20022;-78
2021/11/27 01:48:07;;;;;;;2.17;0.00;;;3.80;99.90;;;;;;4995813;28;20030;-78
2021/11/27 01:50:42;;;;;;;1.35;0.00;;;3.80;99.90;;;;;;4996887;28;20023;-77
2021/11/27 01:53:08;;;;;;;1.40;0.00;;;3.90;99.90;;;;;;4995889;28;20134;-79
2021/11/27 01:55:34;;;;;;;2.55;0.52;;;3.90;99.90;;;;;;4997594;28;20479;-79
2021/11/27 01:58:00;;;;;;;4.95;0.00;;;3.90;99.90;;;;;;4997211;28;20030;-78
2021/11/27 02:00:30;;;;;;;1.30;0.00;;;3.90;99.90;;;;;;4995760;28;20053;-79
2021/11/27 02:02:57;;;;;;;2.63;0.00;;;3.90;99.90;;;;;;4995687;28;20104;-77
2021/11/27 02:05:23;;;;;;;1.08;0.32;;;4.00;99.90;;;;;;4995616;28;20025;-78
2021/11/27 02:07:51;;;;;;;1.17;0.20;;;3.90;99.90;;;;;;4995593;28;20077;-79
2021/11/27 02:10:17;;;;;;;0.90;0.00;;;4.00;99.90;;;;;;4995400;28;20423;-78
2021/11/27 02:12:44;;;;;;;0.30;0.00;;;3.90;99.90;;;;;;4995316;28;20022;-77
2021/11/27 02:15:10;;;;;;;0.70;0.00;;;3.90;99.90;;;;;;4996943;28;20030;-77
2021/11/27 02:17:37;;;;;;;0.88;0.00;;;3.90;99.90;;;;;;4995153;28;20036;-78
2021/11/27 02:20:04;;;;;;;1.02;0.10;;;3.90;99.90;;;;;;4996185;28;20019;-78
2021/11/27 02:22:33;;;;;;;0.70;0.00;;;3.90;99.90;;;;;;4996022;28;20085;-77
2021/11/27 02:24:59;;;;;;;0.82;0.00;;;3.90;99.90;;;;;;4995185;28;20014;-78
2021/11/27 02:27:25;;;;;;;0.00;0.00;;;3.90;99.90;;;;;;4996629;28;20026;-78
2021/11/27 02:29:51;;;;;;;1.98;0.22;;;3.90;99.90;;;;;;4996104;28;20026;-78
2021/11/27 02:32:17;;;;;;;5.38;0.00;;;3.90;99.90;;;;;;4996032;28;20065;-77
2021/11/27 02:34:43;;;;;;;3.30;0.10;;;4.00;99.90;;;;;;4996191;28;20065;-77
2021/11/27 02:37:08;;;;;;;0.17;0.00;;;4.00;99.90;;;;;;4996206;28;20022;-77
2021/11/27 02:39:35;;;;;;;0.00;0.00;;;3.90;99.90;;;;;;4996255;28;20023;-79
2021/11/27 02:42:01;;;;;;;2.40;0.00;;;3.90;99.90;;;;;;4995865;28;20022;-79
2021/11/27 02:44:30;;;;;;;4.47;0.00;;;4.00;99.90;;;;;;4995072;28;20027;-78
2021/11/27 02:46:57;;;;;;;0.00;0.00;;;3.90;99.90;;;;;;4995786;28;20050;-77
2021/11/27 02:49:23;;;;;;;0.95;0.00;;;3.90;99.90;;;;;;4994734;28;20030;-78
2021/11/27 02:51:49;;;;;;;1.33;0.00;;;3.90;99.90;;;;;;4994482;28;20391;-77
2021/11/27 02:54:15;;;;;;;2.72;0.35;;;3.90;99.90;;;;;;4995764;28;20030;-78
2021/11/27 02:56:41;;;;;;;2.30;0.00;;;3.90;99.90;;;;;;4995784;28;20018;-77
2021/11/27 02:59:17;;;;;;;1.55;0.00;;;3.90;99.90;;;;;;4994130;28;20026;-78
2021/11/27 03:01:45;;;;;;;4.82;0.00;;;3.90;99.90;;;;;;4995668;28;20036;-77
2021/11/27 03:04:11;;;;;;;2.15;0.00;;;3.90;99.90;;;;;;4994442;28;20089;-77
2021/11/27 03:06:38;;;;;;;5.47;0.20;;;3.90;99.90;;;;;;4995771;28;20034;-78
2021/11/27 03:09:06;;;;;;;1.10;0.00;;;3.90;99.90;;;;;;4994339;28;20026;-78
2021/11/27 03:11:31;;;;;;;3.92;0.00;;;3.90;99.90;;;;;;4994395;28;20030;-77
2021/11/27 03:13:57;;;;;;;3.15;0.00;;;3.90;99.90;;;;;;4994311;28;20399;-78
2021/11/27 03:16:28;;;;;;;0.90;0.00;;;3.90;99.90;;;;;;4995281;28;20026;-78
2021/11/27 03:18:54;;;;;;;5.55;0.20;;;3.80;99.90;;;;;;4995418;28;20033;-77
2021/11/27 03:21:21;;;;;;;2.05;0.00;;;3.80;99.90;;;;;;4994057;28;20031;-77
2021/11/27 03:23:47;;;;;;;0.43;0.00;;;3.90;99.90;;;;;;4995286;28;20030;-78
2021/11/27 03:26:13;;;;;;;2.03;0.10;;;3.80;99.90;;;;;;4995215;28;20023;-78
2021/11/27 03:28:38;;;;;;;7.90;0.00;;;3.80;99.90;;;;;;4994891;28;20018;-78
2021/11/27 03:31:04;;;;;;;1.33;0.03;;;3.80;99.90;;;;;;4993950;28;20435;-77
2021/11/27 03:33:30;;;;;;;1.45;0.00;;;3.90;99.90;;;;;;4995230;28;20038;-78
2021/11/27 03:35:56;;;;;;;1.70;0.20;;;3.80;99.90;;;;;;4994121;28;20471;-78
2021/11/27 03:38:22;;;;;;;0.38;0.00;;;3.80;99.90;;;;;;4994008;28;20077;-77
2021/11/27 03:40:48;;;;;;;2.50;0.00;;;3.80;99.90;;;;;;4993339;28;20057;-77
2021/11/27 03:43:13;;;;;;;3.40;0.00;;;3.80;99.90;;;;;;4995264;28;20080;-77
2021/11/27 03:45:39;;;;;;;3.03;0.00;;;3.80;99.90;;;;;;4995021;28;20023;-77
2021/11/27 03:48:14;;;;;;;0.40;0.00;;;3.80;99.90;;;;;;4995008;28;20399;-77
2021/11/27 03:50:46;;;;;;;0.50;0.00;;;3.80;99.90;;;;;;4993603;28;20034;-77
2021/11/27 03:53:16;;;;;;;2.30;0.00;;;3.80;99.90;;;;;;4994893;28;20026;-77
2021/11/27 03:55:42;;;;;;;1.20;0.00;;;3.80;99.90;;;;;;4992878;28;20502;-76
2021/11/27 03:58:08;;;;;;;1.15;0.00;;;3.80;99.90;;;;;;4994374;28;20030;-76
2021/11/27 04:00:34;;;;;;;0.52;0.00;;;3.80;99.90;;;;;;4994989;28;20026;-77
2021/11/27 04:03:00;;;;;;;0.00;0.00;;;3.70;99.90;;;;;;4994774;28;20099;-77
2021/11/27 04:05:26;;;;;;;3.95;0.00;;;3.70;99.90;;;;;;4994839;28;20054;-77
2021/11/27 04:07:56;;;;;;;0.13;0.00;;;3.60;99.90;;;;;;4994918;28;20023;-77
2021/11/27 04:10:23;;;;;;;1.00;0.00;;;3.60;99.90;;;;;;4994567;28;20055;-77
2021/11/27 04:12:49;;;;;;;0.28;0.00;;;3.60;99.90;;;;;;4994552;28;20034;-77
2021/11/27 04:15:14;;;;;;;1.15;0.00;;;4.50;99.90;;;;;;4993197;28;20033;-76
2021/11/27 04:17:40;;;;;;;1.35;0.00;;;3.70;99.90;;;;;;4994829;28;20117;-77
2021/11/27 04:20:06;;;;;;;3.10;0.00;;;3.60;99.90;;;;;;4993334;28;20543;-77
2021/11/27 04:22:32;;;;;;;0.80;0.45;;;3.70;99.90;;;;;;4992967;28;20034;-77
2021/11/27 04:24:58;;;;;;;0.25;0.00;;;3.70;99.90;;;;;;4995457;28;20449;-77
2021/11/27 04:27:23;;;;;;;0.00;0.00;;;3.70;99.90;;;;;;4995041;28;20603;-77
2021/11/27 04:29:49;;;;;;;1.58;0.00;;;3.70;99.90;;;;;;4994926;28;20018;-77
2021/11/27 04:32:15;;;;;;;1.67;0.00;;;3.60;99.90;;;;;;4994907;28;20053;-77
2021/11/27 04:34:41;;;;;;;2.65;0.38;;;3.60;99.90;;;;;;4995138;28;20033;-77
2021/11/27 04:37:10;;;;;;;1.55;0.00;;;3.60;99.90;;;;;;4993915;28;20121;-77
2021/11/27 04:39:38;;;;;;;0.85;0.00;;;3.60;99.90;;;;;;4995235;28;20027;-77
2021/11/27 04:42:04;;;;;;;1.10;0.43;;;3.60;99.90;;;;;;4994319;28;20041;-78
2021/11/27 04:44:29;;;;;;;1.13;0.00;;;3.60;99.90;;;;;;4994574;28;20018;-78
2021/11/27 04:46:54;;;;;;;0.32;0.00;;;3.60;99.90;;;;;;4994519;28;20037;-77
2021/11/27 04:49:20;;;;;;;4.30;0.52;;;3.50;99.90;;;;;;4993411;28;20048;-77
2021/11/27 04:51:46;;;;;;;0.45;0.00;;;3.60;99.90;;;;;;4994624;28;20376;-78
2021/11/27 04:54:11;;;;;;;1.90;0.00;;;3.60;99.90;;;;;;4995020;28;20395;-77
2021/11/27 04:56:37;;;;;;;0.00;0.00;;;3.60;99.90;;;;;;4994783;28;20441;-77
2021/11/27 04:59:02;;;;;;;0.13;0.00;;;3.60;99.90;;;;;;4994344;28;20598;-77
2021/11/27 05:01:28;;;;;;;0.52;0.00;;;3.60;99.90;;;;;;4993465;28;20391;-77
2021/11/27 05:03:53;;;;;;;2.78;0.00;;;3.60;99.90;;;;;;4993365;28;20117;-77
2021/11/27 05:06:19;;;;;;;2.20;0.08;;;3.50;99.90;;;;;;4995627;28;20050;-76
2021/11/27 05:08:45;;;;;;;0.10;0.00;;;3.50;99.90;;;;;;4997683;28;20465;-76
2021/11/27 05:11:11;;;;;;;0.93;0.20;;;3.50;99.90;;;;;;4998591;28;20029;-77
2021/11/27 05:13:39;;;;;;;0.10;0.00;;;3.50;99.90;;;;;;4998883;28;20030;-79
2021/11/27 05:16:06;;;;;;;2.13;0.20;;;3.50;99.90;;;;;;4996991;28;20014;-77
2021/11/27 05:18:32;;;;;;;1.38;0.00;;;3.60;99.90;;;;;;4997121;28;20033;-77
2021/11/27 05:20:58;;;;;;;0.52;0.00;;;3.60;99.90;;;;;;4996840;28;20032;-77
2021/11/27 05:23:23;;;;;;;0.00;0.00;;;3.60;99.90;;;;;;4998391;28;20022;-77
2021/11/27 05:25:49;;;;;;;0.57;0.00;;;3.60;99.90;;;;;;4998203;28;20034;-78
2021/11/27 05:28:14;;;;;;;1.35;0.00;;;3.60;99.90;;;;;;4998319;28;20073;-78
2021/11/27 05:30:40;;;;;;;0.32;0.00;;;3.60;99.90;;;;;;4998396;28;20022;-78
2021/11/27 05:33:11;;;;;;;0.57;0.00;;;3.60;99.90;;;;;;4996793;28;20022;-78
2021/11/27 05:35:38;;;;;;;0.80;0.20;;;3.60;99.90;;;;;;4997492;28;20026;-77
2021/11/27 05:38:04;;;;;;;0.20;0.00;;;3.70;99.90;;;;;;4996264;28;20072;-77
2021/11/27 05:40:31;;;;;;;0.17;0.00;;;3.70;99.90;;;;;;4997506;28;20022;-78
2021/11/27 05:42:57;;;;;;;0.38;0.00;;;4.00;99.90;;;;;;4996255;28;20034;-77
2021/11/27 05:45:28;;;;;;;1.25;0.00;;;3.60;99.90;;;;;;4996188;28;20019;-78
2021/11/27 05:47:56;;;;;;;3.00;0.00;;;3.70;99.90;;;;;;4997433;28;20468;-78
2021/11/27 05:50:22;;;;;;;0.17;0.00;;;3.70;99.90;;;;;;4997781;28;20105;-78
2021/11/27 05:52:48;;;;;;;0.60;0.00;;;3.70;99.90;;;;;;4996332;28;20088;-77
2021/11/27 05:55:13;;;;;;;2.45;0.10;;;3.60;99.90;;;;;;4996039;28;20018;-77
2021/11/27 05:57:39;;;;;;;0.40;0.00;;;3.70;99.90;;;;;;4997189;28;20113;-77
2021/11/27 06:00:06;;;;;;;0.00;0.00;;;3.70;99.90;;;;;;4997203;28;20129;-77
2021/11/27 06:02:31;;;;;;;0.75;0.00;;;3.70;99.90;;;;;;4997515;28;20109;-78
2021/11/27 06:04:57;;;;;;;0.38;0.00;;;3.60;99.90;;;;;;4997603;28;20065;-77
2021/11/27 06:07:22;;;;;;;0.98;0.00;;;3.70;99.90;;;;;;4997241;28;20026;-78
2021/11/27 06:09:48;;;;;;;0.10;0.00;;;3.70;99.90;;;;;;4997602;28;20027;-78
2021/11/27 06:12:13;;;;;;;1.85;0.00;;;3.70;99.90;;;;;;4979381;28;20484;-78
2021/11/27 06:14:39;;;;;;;0.55;0.30;;;3.70;99.90;;;;;;4979255;28;20033;-76
2021/11/27 06:17:05;;;;;;;1.85;0.10;;;3.70;99.90;;;;;;4997085;28;20047;-78
2021/11/27 06:19:30;;;;;;;5.70;0.55;;;3.70;99.90;;;;;;4979774;28;20109;-78
2021/11/27 06:21:56;;;;;;;1.92;0.10;;;3.60;99.90;;;;;;4979375;28;20030;-78
2021/11/27 06:24:21;;;;;;;0.85;0.00;;;3.60;99.90;;;;;;4979556;28;20479;-79
2021/11/27 06:26:47;;;;;;;0.45;0.00;;;3.60;99.90;;;;;;4979495;28;20019;-78
2021/11/27 06:29:12;;;;;;;0.00;0.00;;;3.70;99.90;;;;;;4997320;28;20436;-77
2021/11/27 06:31:38;;;;;;;2.90;0.00;;;3.70;99.90;;;;;;4979326;28;20014;-78
2021/11/27 06:34:03;;;;;;;1.65;0.00;;;3.70;99.90;;;;;;4979589;28;20026;-78
2021/11/27 06:36:30;;;;;;;0.70;0.00;;;3.60;99.90;;;;;;4997153;28;20383;-77
2021/11/27 06:38:55;;;;;;;0.55;0.00;;;3.60;99.90;;;;;;4996539;28;20102;-77
2021/11/27 06:41:21;;;;;;;1.20;0.00;;;3.60;99.90;;;;;;4997035;28;20046;-77
2021/11/27 06:43:46;;;;;;;1.02;0.00;;;3.50;99.90;;;;;;4979243;28;20041;-78
2021/11/27 06:46:12;;;;;;;3.72;0.20;;;3.50;99.90;;;;;;4979148;28;20026;-77
2021/11/27 06:48:38;;;;;;;0.00;0.00;;;3.50;99.90;;;;;;4979024;28;20495;-77
2021/11/27 06:51:03;;;;;;;3.92;0.00;;;3.40;99.90;;;;;;4978927;28;20383;-78
2021/11/27 06:53:29;;;;;;;1.95;0.00;;;3.50;99.90;;;;;;4996595;28;20153;-78
2021/11/27 06:55:55;;;;;;;2.13;0.00;;;3.40;99.90;;;;;;4996408;28;20602;-78
2021/11/27 06:58:21;;;;;;;0.68;0.00;;;3.40;99.90;;;;;;4996255;28;20390;-78
2021/11/27 07:00:46;;;;;;;3.40;0.10;;;3.40;99.90;;;;;;4996371;28;20026;-78
2021/11/27 07:03:12;;;;;;;0.47;0.00;;;3.40;99.90;;;;;;4979537;28;20030;-77
2021/11/27 07:05:38;;;;;;;1.88;0.00;;;3.40;99.90;;;;;;4979741;28;20065;-78
2021/11/27 07:08:03;;;;;;;0.00;0.00;;;3.40;99.90;;;;;;4979909;28;20490;-78
2021/11/27 07:10:29;;;;;;;0.20;0.03;;;3.30;99.90;;;;;;4979493;28;20022;-78
2021/11/27 07:12:56;;;;;;;3.35;0.00;;;3.40;99.90;;;;;;4996442;28;20036;-77
2021/11/27 07:15:22;;;;;;;0.20;0.00;;;3.30;99.90;;;;;;4978531;28;20026;-77
2021/11/27 07:17:47;;;;;;;2.78;0.00;;;3.30;99.90;;;;;;4978535;28;20088;-77
2021/11/27 07:20:13;;;;;;;0.47;0.00;;;3.30;99.90;;;;;;4993326;28;20098;-77
2021/11/27 07:22:39;;;;;;;0.10;0.00;;;3.30;99.90;;;;;;4978263;28;20022;-78
2021/11/27 07:25:05;;;;;;;1.85;0.00;;;3.30;99.90;;;;;;4995781;28;20018;-78
2021/11/27 07:27:30;;;;;;;4.45;0.80;;;3.30;99.90;;;;;;4996066;28;20030;-78
2021/11/27 07:29:56;;;;;;;1.70;0.25;;;3.30;99.90;;;;;;4978058;28;20387;-77
2021/11/27 07:32:22;;;;;;;3.28;0.25;;;3.30;99.90;;;;;;4995832;28;20022;-78
2021/11/27 07:34:47;;;;;;;0.47;0.03;;;3.30;99.90;;;;;;4978405;28;20037;-77
2021/11/27 07:37:13;;;;;;;1.77;0.20;;;3.30;99.90;;;;;;4995836;28;20022;-78
2021/11/27 07:39:38;;;;;;;1.30;0.00;;;3.30;99.90;;;;;;4995598;28;20034;-78
2021/11/27 07:42:05;;;;;;;0.35;0.00;;;3.30;99.90;;;;;;4995417;28;20030;-78
2021/11/27 07:44:31;;;;;;;2.50;0.00;;;3.40;99.90;;;;;;4978170;28;20022;-77
2021/11/27 07:46:56;;;;;;;3.40;0.45;;;3.40;99.90;;;;;;4995256;28;20023;-77
2021/11/27 07:49:23;;;;;;;1.75;0.00;;;3.40;99.90;;;;;;4995467;28;20031;-77
2021/11/27 07:51:49;;;;;;;1.85;0.10;;;3.40;99.90;;;;;;4977464;28;20018;-77
2021/11/27 07:54:14;;;;;;;0.47;0.00;;;3.40;99.90;;;;;;4977299;28;20184;-78
2021/11/27 07:56:40;;;;;;;1.42;0.10;;;3.40;99.90;;;;;;4994618;28;20049;-79
2021/11/27 07:59:06;;;;;;;3.03;0.20;;;3.40;99.90;;;;;;4976508;28;20427;-78
2021/11/27 08:01:35;;;;;;;4.57;0.10;;;3.40;99.90;;;;;;4995005;28;20018;-78
2021/11/27 08:04:01;;;;;;;5.93;0.00;;;3.40;99.90;;;;;;4976425;28;20089;-78
2021/11/27 08:06:26;;;;;;;1.60;0.00;;;3.40;99.90;;;;;;4976808;28;20482;-78
2021/11/27 08:08:52;;;;;;;3.10;0.75;;;3.40;99.90;;;;;;4977225;28;20019;-79
2021/11/27 08:11:19;;;;;;;1.25;0.00;;;3.40;99.90;;;;;;4994695;28;20586;-79
2021/11/27 08:13:46;;;;;;;0.52;0.00;;;3.40;99.90;;;;;;4994956;28;20046;-79
2021/11/27 08:16:12;;;;;;;1.40;0.00;;;3.40;99.90;;;;;;4994294;28;20026;-78
2021/11/27 08:18:38;;;;;;;1.40;0.00;;;3.40;99.90;;;;;;4995101;28;20034;-78
2021/11/27 08:21:04;;;;;;;0.60;0.00;;;3.40;99.90;;;;;;4994997;28;20077;-78
2021/11/27 08:23:30;;;;;;;1.55;0.00;;;3.40;99.90;;;;;;4976970;28;20019;-78
2021/11/27 08:25:56;;;;;;;1.27;0.00;;;3.40;99.90;;;;;;4977264;28;20026;-77
2021/11/27 08:28:21;;;;;;;0.40;0.00;;;3.40;99.90;;;;;;4994624;28;20027;-79
2021/11/27 08:30:47;;;;;;;0.38;0.00;;;3.40;99.90;;;;;;4977297;28;20061;-79
2021/11/27 08:33:13;;;;;;;0.20;0.00;;;3.40;99.90;;;;;;4995066;28;20422;-78
2021/11/27 08:35:38;;;;;;;0.65;0.00;;;3.30;99.90;;;;;;4976352;28;20022;-78
2021/11/27 08:38:04;;;;;;;0.75;0.20;;;3.30;99.90;;;;;;4977190;28;20018;-77
2021/11/27 08:40:29;;;;;;;0.20;0.00;;;3.30;99.90;;;;;;4994330;28;20041;-78
2021/11/27 08:42:56;;;;;;;0.98;0.00;;;3.20;99.90;;;;;;4997631;28;20030;-78
2021/11/27 08:45:22;;;;;;;0.15;0.00;;;3.20;99.90;;;;;;4979762;28;20030;-77
2021/11/27 08:47:47;;;;;;;0.75;0.00;;;3.20;99.90;;;;;;4980210;28;20022;-78
2021/11/27 08:50:13;;;;;;;0.52;0.00;;;3.20;99.90;;;;;;4997010;28;20035;-78
2021/11/27 08:52:39;;;;;;;0.08;0.08;;;3.20;99.90;;;;;;4961708;28;1074283;-77
2021/11/27 08:55:06;;;;;;;0.88;0.00;;;3.10;99.90;;;;;;4998690;28;20022;-78
2021/11/27 08:57:32;;;;;;;1.40;0.00;;;3.10;99.90;;;;;;4998507;28;20399;-78
2021/11/27 08:59:58;;;;;;;0.03;0.00;;;3.10;99.90;;;;;;4998758;28;20026;-77
2021/11/27 09:02:24;;;;;;;2.03;0.00;;;3.10;99.90;;;;;;4980949;28;20100;-76
2021/11/27 09:04:50;;;;;;;2.08;0.00;;;3.10;99.90;;;;;;4998263;28;20033;-78
2021/11/27 09:07:15;;;;;;;1.08;0.00;;;3.10;99.90;;;;;;4998436;28;20383;-78
2021/11/27 09:09:45;;;;;;;2.95;0.03;;;3.20;99.90;;;;;;4981097;28;20041;-78
2021/11/27 09:12:10;;;;;;;1.95;0.00;;;3.10;99.90;;;;;;4980160;28;20072;-77
2021/11/27 09:14:36;;;;;;;7.40;0.63;;;3.20;99.90;;;;;;4980628;28;20462;-78
2021/11/27 09:17:03;;;;;;;0.00;0.00;;;3.20;99.90;;;;;;4998026;28;20037;-77
2021/11/27 09:19:28;;;;;;;1.45;0.00;;;3.20;99.90;;;;;;4980970;28;20066;-78
2021/11/27 09:21:54;;;;;;;1.55;0.00;;;3.20;99.90;;;;;;4980860;28;20030;-77
2021/11/27 09:24:20;;;;;;;2.40;0.57;;;3.20;99.90;;;;;;4981315;28;20472;-78
2021/11/27 09:26:47;;;;;;;0.95;0.00;;;3.20;99.90;;;;;;4998383;28;20019;-77
2021/11/27 09:29:17;;;;;;;1.75;0.00;;;3.20;99.90;;;;;;4981003;28;20502;-77
2021/11/27 09:31:43;;;;;;;0.00;0.00;;;3.10;99.90;;;;;;4998368;28;20018;-77
2021/11/27 09:34:10;;;;;;;0.82;0.00;;;3.10;99.90;;;;;;4980152;28;20037;-78
2021/11/27 09:36:37;;;;;;;1.63;0.00;;;3.00;99.90;;;;;;4998463;28;20027;-78
2021/11/27 09:39:06;;;;;;;0.22;0.00;;;3.10;99.90;;;;;;4980541;28;20138;-74
2021/11/27 09:41:34;;;;;;;0.63;0.00;;;3.00;99.90;;;;;;4997372;28;20026;-74
2021/11/27 09:44:04;;;;;;;1.95;0.00;;;3.10;99.90;;;;;;4980141;28;20030;-74
2021/11/27 09:46:31;;;;;;;2.08;0.08;;;3.10;99.90;;;;;;4979851;28;20046;-73
2021/11/27 09:49:04;;;;;;;2.40;0.70;;;3.10;99.90;;;;;;4979942;28;20034;-76
2021/11/27 09:51:32;;;;;;;4.22;0.65;;;3.00;99.90;;;;;;4997138;28;20402;-75
2021/11/27 09:54:00;;;;;;;2.05;0.43;;;3.10;99.90;;;;;;4996591;28;20088;-75
2021/11/27 09:56:27;;;;;;;3.78;0.20;;;3.10;99.90;;;;;;4997002;28;20431;-74
2021/11/27 09:58:53;;;;;;;3.75;0.90;;;3.10;99.90;;;;;;4980145;28;20089;-74
2021/11/27 10:01:23;;;;;;;2.13;0.50;;;3.10;99.90;;;;;;4996829;28;20089;-75
2021/11/27 10:03:58;;;;;;;2.58;0.88;;;3.10;99.90;;;;;;4997248;28;20395;-73
2021/11/27 10:06:25;;;;;;;4.22;0.93;;;3.10;99.90;;;;;;4998403;28;20054;-74
2021/11/27 10:08:51;;;;;;;5.10;0.90;;;3.10;99.90;;;;;;4998504;28;20114;-74
2021/11/27 10:11:17;;;;;;;5.05;1.55;;;3.20;99.90;;;;;;4980494;28;20042;-75
2021/11/27 10:13:42;;;;;;;3.85;1.13;;;3.20;99.90;;;;;;4998037;28;20026;-74
2021/11/27 10:16:08;;;;;;;6.85;1.00;;;3.20;99.90;;;;;;4998075;28;20030;-74
2021/11/27 10:18:33;;;;;;;4.40;1.17;;;3.30;99.90;;;;;;4980504;28;20050;-75
2021/11/27 10:21:22;;;;;;;8.52;1.63;;;3.30;99.90;;;;;;4979378;28;20026;-74
2021/11/27 10:23:49;;;;;;;7.63;0.90;;;3.20;99.90;;;;;;4998149;28;20030;-74
2021/11/27 10:26:34;;;;;;;7.20;1.33;;;3.30;99.90;;;;;;5000331;28;20023;-74
2021/11/27 10:29:22;;;;;;;8.15;1.98;;;3.40;99.90;;;;;;4984309;28;20081;-75
2021/11/27 10:32:05;;;;;;;7.07;1.95;;;3.50;99.90;;;;;;4999670;28;20029;-75
2021/11/27 10:34:31;;;;;;;11.10;3.22;;;3.60;99.90;;;;;;4980904;28;20487;-76
2021/11/27 10:36:57;;;;;;;12.23;3.45;;;3.60;99.90;;;;;;4981012;28;20077;-73
2021/11/27 10:39:22;;;;;;;11.48;3.20;;;3.60;99.90;;;;;;4997711;28;20100;-73
2021/11/27 10:42:05;;;;;;;12.88;3.22;;;3.60;99.90;;;;;;4979872;28;20022;-73
2021/11/27 10:44:34;;;;;;;21.20;4.60;;;3.70;99.90;;;;;;4997414;28;20065;-74
2021/11/27 10:47:13;;;;;;;;;;;3.70;99.90;;;;;;4997819;28;20022;-73
2021/11/27 10:49:40;;;;;;;13.65;3.53;;;3.80;99.90;;;;;;4997625;28;19975;-73
2021/11/27 10:52:19;;;;;;;11.95;3.15;;;3.80;99.90;;;;;;4997386;28;20160;-73
2021/11/27 10:54:58;;;;;;;13.07;2.58;;;3.80;99.90;;;;;;4997708;28;20387;-73
2021/11/27 10:57:36;;;;;;;15.35;3.35;;;3.80;99.90;;;;;;4996403;28;20023;-73
2021/11/27 11:00:27;;;;;;;7.85;1.92;;;3.90;99.90;;;;;;4978340;28;20060;-74
2021/11/27 11:02:53;;;;;;;12.55;2.03;;;3.90;99.90;;;;;;4996149;28;20033;-72
2021/11/27 11:05:19;;;;;;;8.32;1.90;;;3.90;99.90;;;;;;4995628;28;20026;-73
2021/11/27 11:07:58;;;;;;;13.63;2.40;;;4.00;99.90;;;;;;4996462;28;20019;-73
2021/11/27 11:10:32;;;;;;;8.73;1.98;;;4.10;99.90;;;;;;4996370;28;20030;-73
2021/11/27 11:13:03;;;;;;;12.98;1.80;;;4.20;99.90;;;;;;4996049;28;20022;-73
2021/11/27 11:15:31;;;;;;;7.85;1.40;;;4.10;99.90;;;;;;4980374;28;20026;-74
2021/11/27 11:18:18;;;;;;;9.15;1.63;;;4.20;99.90;;;;;;4995699;28;20105;-73
2021/11/27 11:20:55;;;;;;;7.38;1.13;;;4.20;99.90;;;;;;4977901;28;20031;-74
2021/11/27 11:23:23;;;;;;;10.02;1.20;;;4.30;99.90;;;;;;4978980;28;20471;-73
2021/11/27 11:26:09;;;;;;;11.57;1.50;;;4.30;99.90;;;;;;4978590;28;20049;-73
2021/11/27 11:28:56;;;;;;;10.85;2.20;;;4.40;99.90;;;;;;4996499;28;20387;-74
2021/11/27 11:31:24;;;;;;;14.25;1.98;;;4.40;99.90;;;;;;4996166;28;20042;-73
2021/11/27 11:33:53;;;;;;;12.70;1.25;;;4.30;99.90;;;;;;4976284;28;20035;-73
2021/11/27 11:36:20;;;;;;;;;;;4.30;99.90;;;;;;4976779;28;20026;-74
2021/11/27 11:38:48;;;;;;;11.93;0.70;;;4.30;99.90;;;;;;4985917;28;19910;-73
2021/11/27 11:41:16;;;;;;;7.47;0.40;;;4.30;99.90;;;;;;4995877;28;20390;-73
2021/11/27 11:43:42;;;;;;;10.68;0.60;;;4.30;99.90;;;;;;4995688;28;20505;-74
2021/11/27 11:46:08;;;;;;;7.07;0.82;;;4.20;99.90;;;;;;4978364;28;20026;-74
2021/11/27 11:48:34;;;;;;;16.38;1.00;;;4.20;99.90;;;;;;4996282;28;20042;-73
2021/11/27 11:51:02;;;;;;;7.28;1.02;;;4.20;99.90;;;;;;4978713;28;20479;-73
2021/11/27 11:53:46;;;;;;;12.93;1.20;;;4.30;99.90;;;;;;4995946;28;20030;-73
2021/11/27 11:56:12;;;;;;;11.07;0.45;;;4.30;99.90;;;;;;4996460;28;20096;-73
2021/11/27 11:58:41;;;;;;;7.60;0.20;;;4.30;99.90;;;;;;4996392;28;20030;-74
2021/11/27 12:01:26;;;;;;;9.27;0.73;;;4.30;99.90;;;;;;4996737;28;20065;-73
2021/11/27 12:03:52;;;;;;;4.05;0.10;;;4.30;99.90;;;;;;4978449;28;20048;-73
2021/11/27 12:06:21;;;;;;;10.23;0.95;;;4.20;99.90;;;;;;4996495;28;20113;-74
2021/11/27 12:08:50;;;;;;;7.45;0.88;;;4.10;99.90;;;;;;4995532;28;20077;-74
2021/11/27 12:11:51;;;;;;;8.85;0.20;;;4.10;99.90;;;;;;4995960;28;20021;-73
2021/11/27 12:14:24;;;;;;;6.85;0.57;;;4.10;99.90;;;;;;4995515;28;20041;-73
2021/11/27 12:17:15;;;;;;;6.18;0.30;;;4.10;99.90;;;;;;4995946;28;20023;-73
2021/11/27 12:19:46;;;;;;;7.07;0.05;;;4.00;99.90;;;;;;4995940;28;20037;-73
2021/11/27 12:22:30;;;;;;;3.58;0.10;;;4.00;99.90;;;;;;4978006;28;20058;-74
2021/11/27 12:25:16;;;;;;;4.50;0.15;;;4.10;99.90;;;;;;4977705;28;20072;-73
2021/11/27 12:28:07;;;;;;;7.38;0.28;;;4.10;99.90;;;;;;4977792;28;20113;-74
2021/11/27 12:30:44;;;;;;;6.65;0.10;;;4.10;99.90;;;;;;4984141;28;20035;-74
2021/11/27 12:33:45;;;;;;;5.32;0.20;;;4.00;99.90;;;;;;4996032;28;20030;-74
2021/11/27 12:36:26;;;;;;;1.92;0.20;;;4.00;99.90;;;;;;4995842;28;20122;-74
2021/11/27 12:38:55;;;;;;;8.02;0.32;;;4.10;99.90;;;;;;4978127;28;20027;-74
2021/11/27 12:41:26;;;;;;;4.65;0.85;;;4.10;99.90;;;;;;4995933;28;20026;-74
2021/11/27 12:44:16;;;;;;;10.93;0.55;;;4.10;99.90;;;;;;4977200;28;20116;-74
2021/11/27 12:46:50;;;;;;;1.13;0.00;;;4.10;99.90;;;;;;4995315;28;20419;-74
2021/11/27 12:49:31;;;;;;;6.45;0.20;;;4.10;99.90;;;;;;4978308;28;20117;-74
2021/11/27 12:54:41;;;;;;;3.75;0.52;;;4.00;99.90;;;;;;4996403;28;20069;-74
2021/11/27 12:57:09;;;;;;;6.88;0.57;;;4.00;99.90;;;;;;4978325;28;20030;-74
2021/11/27 12:59:35;;;;;;;4.15;0.30;;;4.00;99.90;;;;;;4996157;28;20396;-74
2021/11/27 13:02:00;;;;;;;4.03;0.32;;;3.90;99.90;;;;;;4995319;28;20019;-74
2021/11/27 13:04:36;;;;;;;8.95;0.35;;;3.90;99.90;;;;;;4995192;28;20026;-74